createdAt,value
2022-10-04T00:01:42.392Z,15.35
2022-10-04T00:04:27.774Z,19.83
2022-10-04T00:07:00.036Z,24.10
2022-10-04T00:09:29.995Z,21.48
2022-10-04T00:11:56.955Z,32.25
2022-10-04T00:16:49.733Z,16.02
2022-10-04T00:19:15.999Z,20.17
2022-10-04T00:21:57.284Z,18.13
2022-10-04T00:24:23.513Z,17.27
2022-10-04T00:26:49.724Z,20.35
2022-10-04T00:29:35.646Z,16.30
2022-10-04T00:32:07.697Z,17.70
2022-10-04T00:34:33.926Z,27.75
2022-10-04T00:37:00.235Z,14.32
2022-10-04T00:39:32.620Z,15.10
2022-10-04T00:41:58.844Z,16.25
2022-10-04T00:44:32.295Z,15.70
2022-10-04T00:46:59.905Z,18.15
2022-10-04T00:49:29.534Z,12.38
2022-10-04T00:52:06.617Z,10.05
2022-10-04T00:54:35.080Z,14.73
2022-10-04T00:57:07.368Z,10.38
2022-10-04T00:59:36.070Z,12.88
2022-10-04T01:02:08.123Z,12.80
2022-10-04T01:04:38.440Z,10.55
2022-10-04T01:07:05.367Z,12.85
2022-10-04T01:09:33.760Z,9.68
2022-10-04T01:12:04.009Z,16.20
2022-10-04T01:14:35.601Z,11.52
2022-10-04T01:17:03.009Z,11.85
2022-10-04T01:19:31.038Z,14.27
2022-10-04T01:22:08.635Z,12.52
2022-10-04T01:27:01.665Z,26.48
2022-10-04T01:29:29.101Z,29.73
2022-10-04T01:31:57.299Z,74.97
2022-10-04T01:34:24.660Z,64.20
2022-10-04T01:36:52.816Z,47.65
2022-10-04T01:39:20.349Z,68.80
2022-10-04T01:42:05.076Z,72.80
2022-10-04T01:44:39.726Z,91.88
2022-10-04T01:47:09.376Z,77.45
2022-10-04T01:49:38.186Z,63.65
2022-10-04T01:52:10.352Z,50.35
2022-10-04T01:54:42.520Z,92.25
2022-10-04T01:57:22.942Z,97.32
2022-10-04T01:59:49.146Z,35.47
2022-10-04T02:02:18.714Z,47.50
2022-10-04T02:04:49.540Z,34.78
2022-10-04T02:07:16.294Z,22.85
2022-10-04T02:09:44.377Z,24.35
2022-10-04T02:12:15.170Z,22.20
2022-10-04T02:14:44.019Z,18.15
2022-10-04T02:17:11.990Z,17.05
2022-10-04T02:19:40.604Z,17.50
2022-10-04T02:22:08.625Z,15.73
2022-10-04T02:24:37.083Z,12.55
2022-10-04T02:27:03.442Z,10.50
2022-10-04T02:29:29.760Z,16.42
2022-10-04T02:32:15.040Z,20.65
2022-10-04T02:34:41.443Z,14.52
2022-10-04T02:37:08.102Z,12.50
2022-10-04T02:39:39.303Z,13.18
2022-10-04T02:42:11.725Z,14.93
2022-10-04T02:44:52.621Z,18.02
2022-10-04T02:47:20.641Z,13.95
2022-10-04T02:49:49.155Z,12.40
2022-10-04T02:52:16.322Z,14.68
2022-10-04T02:54:56.873Z,13.52
2022-10-04T02:57:23.627Z,13.23
2022-10-04T02:59:50.772Z,12.48
2022-10-04T03:02:28.943Z,12.98
2022-10-04T03:04:59.026Z,12.90
2022-10-04T03:07:25.845Z,11.77
2022-10-04T03:09:52.558Z,17.42
2022-10-04T03:12:19.447Z,10.75
2022-10-04T03:14:45.717Z,13.88
2022-10-04T03:17:14.595Z,19.17
2022-10-04T03:19:40.936Z,12.48
2022-10-04T03:22:08.508Z,19.52
2022-10-04T03:24:37.629Z,13.57
2022-10-04T03:27:06.468Z,19.42
2022-10-04T03:29:33.975Z,21.85
2022-10-04T03:32:01.579Z,27.35
2022-10-04T03:34:31.889Z,28.85
2022-10-04T03:36:59.187Z,69.15
2022-10-04T03:39:25.437Z,87.43
2022-10-04T03:41:53.116Z,34.92
2022-10-04T03:44:19.745Z,23.92
2022-10-04T03:46:46.675Z,27.02
2022-10-04T03:49:17.358Z,13.77
2022-10-04T03:51:48.946Z,15.20
2022-10-04T03:54:20.883Z,10.13
2022-10-04T03:56:47.723Z,13.13
2022-10-04T03:59:16.022Z,10.27
2022-10-04T04:01:48.158Z,14.48
2022-10-04T04:04:17.206Z,11.25
2022-10-04T04:07:01.539Z,16.08
2022-10-04T04:09:39.379Z,16.77
2022-10-04T04:12:34.099Z,15.77
2022-10-04T04:15:01.277Z,14.88
2022-10-04T04:17:27.565Z,14.57
2022-10-04T04:20:06.962Z,13.88
2022-10-04T04:22:34.649Z,17.00
2022-10-04T04:25:02.168Z,16.23
2022-10-04T04:27:29.939Z,17.20
2022-10-04T04:29:59.248Z,15.18
2022-10-04T04:32:31.383Z,15.30
2022-10-04T04:34:58.757Z,13.15
2022-10-04T04:37:25.081Z,17.73
2022-10-04T04:39:57.793Z,20.75
2022-10-04T04:42:27.484Z,15.65
2022-10-04T04:44:55.782Z,20.65
2022-10-04T04:47:22.015Z,23.38
2022-10-04T04:49:49.855Z,20.88
2022-10-04T04:52:17.892Z,23.77
2022-10-04T04:54:47.013Z,20.95
2022-10-04T04:57:19.354Z,23.13
2022-10-04T04:59:46.838Z,24.13
2022-10-04T05:02:31.836Z,22.65
2022-10-04T05:05:30.456Z,24.95
2022-10-04T05:08:15.013Z,27.30
2022-10-04T05:10:42.789Z,28.35
2022-10-04T05:13:10.165Z,23.52
2022-10-04T05:15:37.927Z,21.45
2022-10-04T05:18:17.621Z,27.30
2022-10-04T05:20:47.148Z,22.92
2022-10-04T05:23:13.414Z,23.60
2022-10-04T05:25:39.803Z,23.65
2022-10-04T05:28:06.238Z,24.83
2022-10-04T05:30:37.635Z,29.92
2022-10-04T05:33:04.050Z,21.90
2022-10-04T05:35:38.290Z,26.13
2022-10-04T05:38:07.560Z,26.25
2022-10-04T05:40:39.396Z,23.83
2022-10-04T05:43:21.803Z,18.15
2022-10-04T05:45:49.817Z,21.67
2022-10-04T05:48:16.325Z,23.80
2022-10-04T05:50:43.527Z,28.92
2022-10-04T05:53:09.724Z,29.60
2022-10-04T05:55:52.948Z,30.38
2022-10-04T05:58:34.557Z,24.23
2022-10-04T06:01:17.721Z,26.20
2022-10-04T06:04:02.709Z,24.73
2022-10-04T06:06:49.244Z,26.60
2022-10-04T06:09:24.531Z,28.33
2022-10-04T06:12:06.120Z,21.45
2022-10-04T06:14:40.957Z,27.48
2022-10-04T06:17:07.264Z,32.05
2022-10-04T06:19:33.545Z,33.35
2022-10-04T06:22:02.859Z,25.67
2022-10-04T06:24:35.177Z,24.70
2022-10-04T06:27:23.318Z,26.27
2022-10-04T06:32:15.760Z,24.08
2022-10-04T06:34:54.964Z,21.10
2022-10-04T06:37:23.973Z,19.17
2022-10-04T06:39:59.544Z,24.88
2022-10-04T06:42:34.130Z,23.17
2022-10-04T06:45:06.617Z,27.70
2022-10-04T06:47:44.760Z,26.67
2022-10-04T06:50:33.701Z,24.75
2022-10-04T06:53:08.014Z,22.65
2022-10-04T06:55:40.477Z,25.20
2022-10-04T06:58:12.790Z,19.08
2022-10-04T07:01:00.230Z,24.40
2022-10-04T07:03:30.359Z,28.55
2022-10-04T07:06:03.061Z,23.35
2022-10-04T07:08:47.320Z,22.17
2022-10-04T07:11:13.653Z,28.63
2022-10-04T07:13:42.893Z,26.33
2022-10-04T07:16:28.000Z,20.77
2022-10-04T07:18:54.275Z,18.52
2022-10-04T07:21:22.042Z,19.25
2022-10-04T07:23:57.378Z,19.15
2022-10-04T07:26:28.400Z,17.58
2022-10-04T07:29:15.619Z,19.73
2022-10-04T07:31:42.543Z,17.83
2022-10-04T07:34:11.892Z,21.25
2022-10-04T07:36:55.015Z,15.93
2022-10-04T07:39:24.032Z,17.75
2022-10-04T07:41:59.399Z,15.13
2022-10-04T07:44:27.461Z,18.90
2022-10-04T07:46:56.132Z,21.17
2022-10-04T07:49:23.129Z,15.52
2022-10-04T07:54:21.581Z,17.80
2022-10-04T07:57:01.512Z,15.77
2022-10-04T07:59:29.616Z,13.63
2022-10-04T08:02:14.512Z,18.02
2022-10-04T08:04:58.785Z,12.88
2022-10-04T08:07:37.162Z,12.55
2022-10-04T08:10:13.187Z,17.45
2022-10-04T08:12:52.041Z,14.85
2022-10-04T08:15:38.123Z,13.68
2022-10-04T08:18:10.053Z,17.10
2022-10-04T08:20:56.533Z,19.65
2022-10-04T08:23:28.823Z,17.70
2022-10-04T08:25:55.016Z,16.70
2022-10-04T08:28:49.280Z,12.45
2022-10-04T08:31:30.667Z,13.20
2022-10-04T08:33:56.930Z,15.18
2022-10-04T08:36:43.687Z,9.30
2022-10-04T08:39:29.248Z,12.07
2022-10-04T08:42:22.355Z,8.82
2022-10-04T08:44:56.997Z,14.80
2022-10-04T08:47:33.313Z,14.13
2022-10-04T08:50:05.312Z,20.65
2022-10-04T08:52:36.973Z,16.40
2022-10-04T08:55:25.065Z,20.92
2022-10-04T08:58:09.941Z,14.60
2022-10-04T09:00:47.246Z,15.57
2022-10-04T09:03:34.167Z,17.50
2022-10-04T09:06:09.996Z,12.50
2022-10-04T09:08:55.247Z,14.80
2022-10-04T09:11:41.497Z,16.35
2022-10-04T09:14:23.890Z,15.30
2022-10-04T09:17:08.909Z,19.80
2022-10-04T09:19:53.707Z,21.15
2022-10-04T09:22:31.966Z,14.18
2022-10-04T09:25:01.251Z,26.58
2022-10-04T09:27:54.739Z,11.88
2022-10-04T09:30:35.642Z,15.98
2022-10-04T09:33:25.891Z,11.65
2022-10-04T09:35:54.951Z,10.77
2022-10-04T09:38:40.597Z,15.90
2022-10-04T09:41:26.802Z,18.23
2022-10-04T09:44:04.464Z,12.05
2022-10-04T09:49:03.111Z,14.35
2022-10-04T09:51:49.043Z,15.60
2022-10-04T09:54:33.791Z,17.35
2022-10-04T09:57:18.879Z,17.35
2022-10-04T09:59:45.082Z,12.00
2022-10-04T10:02:28.787Z,15.30
2022-10-04T10:05:14.278Z,13.48
2022-10-04T10:07:43.381Z,13.15
2022-10-04T10:10:37.578Z,15.70
2022-10-04T10:13:34.723Z,17.40
2022-10-04T10:16:00.978Z,14.70
2022-10-04T10:18:53.372Z,9.98
2022-10-04T10:21:26.477Z,13.90
2022-10-04T10:24:08.996Z,12.52
2022-10-04T10:26:53.519Z,16.75
2022-10-04T10:29:38.535Z,14.85
2022-10-04T10:32:05.563Z,17.30
2022-10-04T10:36:59.819Z,12.07
2022-10-04T10:39:41.347Z,17.15
2022-10-04T10:42:07.639Z,17.33
2022-10-04T10:44:47.395Z,12.68
2022-10-04T10:47:22.733Z,11.48
2022-10-04T10:49:56.712Z,11.82
2022-10-04T10:52:42.325Z,12.88
2022-10-04T10:55:26.888Z,9.93
2022-10-04T10:57:58.981Z,9.88
2022-10-04T11:00:35.540Z,11.60
2022-10-04T11:03:13.113Z,9.98
2022-10-04T11:05:40.049Z,8.05
2022-10-04T11:08:29.890Z,13.35
2022-10-04T11:11:03.217Z,7.75
2022-10-04T11:13:48.764Z,6.28
2022-10-04T11:16:34.737Z,7.35
2022-10-04T11:19:19.753Z,8.38
2022-10-04T11:21:52.022Z,9.07
2022-10-04T11:24:21.290Z,7.30
2022-10-04T11:27:01.640Z,7.30
2022-10-04T11:29:48.131Z,5.47
2022-10-04T11:32:34.246Z,9.45
2022-10-04T11:35:00.531Z,6.63
2022-10-04T11:39:53.173Z,10.30
2022-10-04T11:42:38.009Z,10.38
2022-10-04T11:45:20.261Z,9.13
2022-10-04T11:48:02.492Z,6.55
2022-10-04T11:50:38.996Z,8.55
2022-10-04T11:53:13.844Z,7.30
2022-10-04T11:55:54.005Z,11.10
2022-10-04T11:58:33.056Z,8.13
2022-10-04T12:01:14.064Z,7.40
2022-10-04T12:03:44.183Z,7.47
2022-10-04T12:06:18.483Z,10.68
2022-10-04T12:08:59.396Z,5.65
2022-10-04T12:11:53.453Z,6.20
2022-10-04T12:14:29.890Z,5.65
2022-10-04T12:19:22.811Z,6.03
2022-10-04T12:21:54.638Z,7.53
2022-10-04T12:24:39.717Z,7.03
2022-10-04T12:27:29.292Z,6.10
2022-10-04T12:30:03.194Z,8.50
2022-10-04T12:32:58.212Z,6.65
2022-10-04T12:35:29.121Z,8.93
2022-10-04T12:38:13.875Z,7.90
2022-10-04T12:40:40.086Z,6.18
2022-10-04T12:43:09.972Z,6.18
2022-10-04T12:45:45.122Z,9.45
2022-10-04T12:48:31.104Z,8.05
2022-10-04T12:51:16.355Z,7.60
2022-10-04T12:53:58.630Z,5.63
2022-10-04T12:56:36.728Z,8.02
2022-10-04T12:59:12.216Z,5.40
2022-10-04T13:01:46.620Z,4.90
2022-10-04T13:04:22.277Z,6.68
2022-10-04T13:07:07.559Z,6.30
2022-10-04T13:10:19.278Z,6.72
2022-10-04T13:13:04.400Z,4.20
2022-10-04T13:19:05.980Z,4.30
2022-10-04T13:21:34.959Z,6.22
2022-10-04T13:24:04.361Z,6.60
2022-10-04T13:26:41.561Z,7.22
2022-10-04T13:29:07.805Z,6.80
2022-10-04T13:31:40.286Z,7.63
2022-10-04T13:34:15.583Z,7.55
2022-10-04T13:37:14.874Z,6.88
2022-10-04T13:39:47.037Z,6.40
2022-10-04T13:42:13.284Z,5.13
2022-10-04T13:44:39.621Z,5.70
2022-10-04T13:47:14.929Z,3.53
2022-10-04T13:50:00.823Z,6.30
2022-10-04T13:52:45.763Z,16.42
2022-10-04T13:55:50.896Z,7.13
2022-10-04T13:58:26.238Z,5.43
2022-10-04T14:01:03.753Z,6.40
2022-10-04T14:03:43.639Z,5.80
2022-10-04T14:06:32.457Z,6.93
2022-10-04T14:09:01.444Z,9.10
2022-10-04T14:12:00.587Z,4.55
2022-10-04T14:14:42.896Z,6.45
2022-10-04T14:17:09.117Z,6.13
2022-10-04T14:22:07.420Z,5.15
2022-10-04T14:24:36.621Z,4.85
2022-10-04T14:27:22.297Z,5.75
2022-10-04T14:29:54.562Z,8.35
2022-10-04T14:32:29.895Z,4.50
2022-10-04T14:35:08.329Z,3.50
2022-10-04T14:37:40.821Z,9.77
2022-10-04T14:40:09.840Z,6.15
2022-10-04T14:42:36.121Z,9.45
2022-10-04T14:45:11.622Z,10.40
2022-10-04T14:47:37.897Z,6.20
2022-10-04T14:50:17.837Z,4.38
2022-10-04T14:52:51.301Z,9.30
2022-10-04T14:55:30.970Z,10.00
2022-10-04T14:58:14.021Z,4.18
2022-10-04T15:00:59.868Z,5.38
2022-10-04T15:03:30.287Z,7.65
2022-10-04T15:06:09.090Z,2.80
2022-10-04T15:08:35.355Z,7.68
2022-10-04T15:11:04.470Z,7.68
2022-10-04T15:13:32.978Z,7.38
2022-10-04T15:16:17.985Z,6.80
2022-10-04T15:18:48.516Z,4.03
2022-10-04T15:21:23.659Z,5.30
2022-10-04T15:23:55.270Z,6.32
2022-10-04T15:26:21.502Z,9.80
2022-10-04T15:31:16.747Z,6.25
2022-10-04T15:34:02.008Z,5.63
2022-10-04T15:36:37.217Z,9.70
2022-10-04T15:39:26.727Z,7.70
2022-10-04T15:41:52.949Z,7.90
2022-10-04T15:44:38.488Z,5.07
2022-10-04T15:47:08.141Z,4.28
2022-10-04T15:49:53.090Z,8.23
2022-10-04T15:52:22.936Z,8.05
2022-10-04T15:55:01.412Z,12.73
2022-10-04T15:57:32.240Z,45.22
2022-10-04T16:00:05.151Z,27.75
2022-10-04T16:02:31.632Z,19.80
2022-10-04T16:05:03.456Z,23.27
2022-10-04T16:07:39.778Z,22.23
2022-10-04T16:10:16.309Z,31.92
2022-10-04T16:13:01.317Z,18.23
2022-10-04T16:15:31.702Z,11.93
2022-10-04T16:18:16.836Z,12.45
2022-10-04T16:20:55.319Z,18.92
2022-10-04T16:23:29.552Z,15.80
2022-10-04T16:25:57.579Z,12.15
2022-10-04T16:28:51.308Z,12.10
2022-10-04T16:31:36.782Z,12.85
2022-10-04T16:34:10.085Z,13.48
2022-10-04T16:36:54.035Z,12.68
2022-10-04T16:40:06.008Z,12.05
2022-10-04T16:42:38.889Z,10.30
2022-10-04T16:45:05.131Z,13.90
2022-10-04T16:47:34.358Z,10.75
2022-10-04T16:50:04.672Z,8.05
2022-10-04T16:52:51.204Z,11.07
2022-10-04T16:55:23.572Z,13.48
2022-10-04T16:58:08.858Z,12.25
2022-10-04T17:00:36.149Z,6.72
2022-10-04T17:03:02.440Z,5.43
2022-10-04T17:05:31.772Z,17.85
2022-10-04T17:08:16.407Z,13.18
2022-10-04T17:10:48.688Z,16.65
2022-10-04T17:13:23.396Z,20.75
2022-10-04T17:15:59.807Z,13.48
2022-10-04T17:18:41.018Z,18.08
2022-10-04T17:21:17.401Z,15.70
2022-10-04T17:23:52.580Z,10.05
2022-10-04T17:26:32.921Z,11.93
2022-10-04T17:29:07.049Z,7.68
2022-10-04T17:31:43.909Z,16.92
2022-10-04T17:34:30.501Z,26.52
2022-10-04T17:37:02.908Z,24.98
2022-10-04T17:39:32.276Z,21.33
2022-10-04T17:42:16.956Z,15.32
2022-10-04T17:44:46.332Z,12.25
2022-10-04T17:47:21.422Z,16.50
2022-10-04T17:50:21.757Z,14.50
2022-10-04T17:53:12.565Z,17.20
2022-10-04T17:55:45.783Z,15.52
2022-10-04T17:58:18.015Z,14.38
2022-10-04T18:00:55.421Z,17.23
2022-10-04T18:03:31.632Z,12.10
2022-10-04T18:06:00.744Z,11.35
2022-10-04T18:08:39.099Z,16.05
2022-10-04T18:11:13.760Z,14.02
2022-10-04T18:13:46.559Z,12.48
2022-10-04T18:16:23.762Z,16.77
2022-10-04T18:18:50.857Z,14.25
2022-10-04T18:21:22.310Z,22.50
2022-10-04T18:23:53.911Z,20.80
2022-10-04T18:26:21.037Z,15.95
2022-10-04T18:28:48.633Z,15.70
2022-10-04T18:31:24.182Z,18.10
2022-10-04T18:33:51.442Z,15.05
2022-10-04T18:36:24.417Z,20.73
2022-10-04T18:39:03.253Z,22.88
2022-10-04T18:41:50.302Z,16.02
2022-10-04T18:44:17.535Z,18.15
2022-10-04T18:46:48.107Z,20.88
2022-10-04T18:49:15.303Z,9.50
2022-10-04T18:51:44.985Z,11.90
2022-10-04T18:54:14.167Z,11.60
2022-10-04T18:57:09.828Z,11.50
2022-10-04T19:00:00.951Z,16.58
2022-10-04T19:02:35.356Z,13.18
2022-10-04T19:05:02.014Z,16.58
2022-10-04T19:07:52.093Z,9.15
2022-10-04T19:10:40.265Z,18.60
2022-10-04T19:15:38.903Z,13.85
2022-10-04T19:18:24.038Z,10.65
2022-10-04T19:21:05.636Z,12.32
2022-10-04T19:23:31.882Z,16.05
2022-10-04T19:26:31.618Z,15.50
2022-10-04T19:29:07.590Z,14.45
2022-10-04T19:31:39.283Z,9.43
2022-10-04T19:34:14.377Z,10.40
2022-10-04T19:36:59.386Z,10.98
2022-10-04T19:39:38.161Z,16.65
2022-10-04T19:42:09.396Z,13.90
2022-10-04T19:44:52.798Z,11.90
2022-10-04T19:47:38.128Z,16.92
2022-10-04T19:50:18.598Z,14.02
2022-10-04T19:52:53.250Z,13.50
2022-10-04T19:55:19.504Z,14.00
2022-10-04T19:57:49.847Z,15.00
2022-10-04T20:00:16.801Z,20.58
2022-10-04T20:02:48.234Z,22.10
2022-10-04T20:05:16.559Z,22.98
2022-10-04T20:07:48.511Z,25.77
2022-10-04T20:10:22.771Z,16.27
2022-10-04T20:13:05.105Z,16.55
2022-10-04T20:15:37.725Z,16.75
2022-10-04T20:18:22.795Z,16.92
2022-10-04T20:20:55.073Z,11.15
2022-10-04T20:23:36.940Z,14.55
2022-10-04T20:26:06.924Z,10.75
2022-10-04T20:28:35.435Z,12.48
2022-10-04T20:31:02.803Z,16.83
2022-10-04T20:33:36.540Z,12.95
2022-10-04T20:36:10.069Z,13.65
2022-10-04T20:39:02.840Z,16.45
2022-10-04T20:41:29.104Z,14.90
2022-10-04T20:43:55.313Z,15.13
2022-10-04T20:46:22.602Z,9.98
2022-10-04T20:48:49.148Z,18.02
2022-10-04T20:51:21.577Z,19.10
2022-10-04T20:53:50.699Z,10.25
2022-10-04T20:56:17.245Z,13.85
2022-10-04T20:58:43.951Z,17.10
2022-10-04T21:01:43.840Z,16.92
2022-10-04T21:04:14.134Z,16.90
2022-10-04T21:07:16.010Z,17.38
2022-10-04T21:09:42.604Z,21.08
2022-10-04T21:12:27.356Z,15.13
2022-10-04T21:15:12.413Z,12.93
2022-10-04T21:17:38.792Z,17.02
2022-10-04T21:20:06.052Z,22.85
2022-10-04T21:22:33.431Z,15.07
2022-10-04T21:25:01.095Z,19.48
2022-10-04T21:27:37.309Z,13.23
2022-10-04T21:30:13.853Z,18.23
2022-10-04T21:32:40.205Z,18.35
2022-10-04T21:35:07.461Z,13.73
2022-10-04T21:37:34.060Z,17.00
2022-10-04T21:40:00.555Z,16.30
2022-10-04T21:42:26.943Z,18.83
2022-10-04T21:44:53.269Z,22.77
2022-10-04T21:47:21.616Z,15.18
2022-10-04T21:49:48.536Z,14.95
2022-10-04T21:52:17.399Z,15.88
2022-10-04T21:54:46.775Z,20.25
2022-10-04T21:57:13.585Z,15.40
2022-10-04T21:59:39.800Z,17.05
2022-10-04T22:02:07.675Z,24.33
2022-10-04T22:04:34.108Z,20.08
2022-10-04T22:07:00.429Z,25.85
2022-10-04T22:09:26.669Z,23.80
2022-10-04T22:11:53.068Z,21.35
2022-10-04T22:14:19.309Z,17.27
2022-10-04T22:16:46.006Z,20.73
2022-10-04T22:19:12.410Z,22.13
2022-10-04T22:21:38.689Z,21.45
2022-10-04T22:24:10.205Z,14.82
2022-10-04T22:26:36.484Z,14.38
2022-10-04T22:29:02.733Z,20.92
2022-10-04T22:31:29.532Z,17.35
2022-10-04T22:33:56.221Z,17.50
2022-10-04T22:36:39.164Z,14.55
2022-10-04T22:39:08.135Z,15.63
2022-10-04T22:41:36.605Z,19.10
2022-10-04T22:44:06.996Z,16.30
2022-10-04T22:46:36.056Z,19.92
2022-10-04T22:49:02.435Z,22.00
2022-10-04T22:51:29.193Z,19.67
2022-10-04T22:53:56.108Z,23.88
2022-10-04T22:56:22.360Z,15.23
2022-10-04T22:58:48.613Z,23.42
2022-10-04T23:01:16.277Z,18.63
2022-10-04T23:03:46.174Z,22.95
2022-10-04T23:06:15.505Z,18.95
2022-10-04T23:08:42.142Z,18.27
2022-10-04T23:11:08.940Z,16.50
2022-10-04T23:13:35.556Z,22.38
2022-10-04T23:16:09.665Z,13.93
2022-10-04T23:18:36.032Z,20.75
2022-10-04T23:21:02.403Z,17.63
2022-10-04T23:23:30.340Z,15.90
2022-10-04T23:25:56.622Z,18.38
2022-10-04T23:28:23.446Z,20.73
2022-10-04T23:30:58.048Z,24.50
2022-10-04T23:33:24.279Z,21.90
2022-10-04T23:35:50.840Z,20.17
2022-10-04T23:38:18.599Z,20.88
2022-10-04T23:40:45.375Z,21.58
2022-10-04T23:43:15.066Z,18.45
2022-10-04T23:45:44.046Z,20.30
2022-10-04T23:48:12.634Z,16.67
2022-10-04T23:50:39.893Z,20.73
2022-10-04T23:53:09.509Z,28.83
2022-10-04T23:55:37.108Z,15.93
2022-10-04T23:58:10.862Z,20.02
